Skip to main content

NOAA/GLERL Met Station at Chicago, IL

Previous 5 days (top of hour only)
See also Previous 3 Hours (2 minute increments)
Jump down to Data
Switch to [English][Metric]
Zoom: Click and drag, Pan: shift-click and drag, Unzoom: double-click, Unzoom All




Note: Speed = mean wind during 2-minute period at top of hour,
Gust = max wind during 2-minute period at top of hour,
Peak = max wind during entire hour.
• See also 5-day windrose plot


NOAA/GLERL Met Station at Chicago, IL

Previous 5 days (top of hour only)
See also Previous 3 Hours (2 minute increments)
Jump up to Graphs
Switch to [English][Metric]
                  Wind  Wind  Wind   Air   Dew   Rel
                   Spd   Gst   Dir  Temp    Pt   Hum
YYYY-MM-DD   CDT   kts   kts   deg     F     F     %
2018-07-22 15:00  18.1  19.8     1  70.9  69.0  93.8
2018-07-22 14:00  16.7  18.1    10  71.4  69.7  94.2
2018-07-22 13:00  16.1  17.3     7  71.1  69.6  95.2
2018-07-22 12:00  16.1  17.5    12  71.2  69.6  94.4
2018-07-22 11:00  19.1  21.0    10  70.9  69.9  96.6
2018-07-22 10:00  15.6  17.1   354  69.4  69.3  99.4
2018-07-22 09:00  19.8  22.7   343  68.7  68.5  99.4
2018-07-22 08:00  16.7  17.7   333  68.4  68.1  99.1
2018-07-22 07:00  18.1  20.0   345  70.2  69.4  97.4
2018-07-22 06:00  14.8  16.1   360  70.9  68.9  93.5
2018-07-22 05:00  16.3  17.5     3  70.9  69.3  94.8
2018-07-22 04:00  17.7  18.9     3  70.9  69.5  95.2
2018-07-22 03:00  18.3  20.0   354  70.9  69.3  94.8
2018-07-22 02:00  21.2  23.5     7  70.9  69.5  95.4
2018-07-22 01:00  18.1  20.4     2  71.2  69.6  94.5
2018-07-22 00:00  18.9  23.5     1  70.0  69.7  99.1
2018-07-21 23:00  18.7  21.4   342  69.3  68.7  98.2
2018-07-21 22:00  20.2  22.2   337  68.7  68.4  98.8
2018-07-21 21:00  16.5  18.1   337  68.9  68.0  96.8
2018-07-21 20:00  19.6  21.6   341  69.1  68.0  96.3
2018-07-21 19:00  24.5  26.4   354  70.5  67.5  90.0
2018-07-21 18:00  20.4  22.4   351  71.4  67.1  86.1
2018-07-21 17:00  16.9  19.1     1  71.4  67.7  88.0
2018-07-21 16:00  22.2  24.5     3  70.9  67.6  89.2
2018-07-21 15:00  24.1  26.2   349  70.2  67.3  90.4
2018-07-21 14:00  22.0  23.3   341  68.5  67.3  95.8
2018-07-21 13:00  22.9  24.9   350  70.0  68.1  93.7
2018-07-21 12:00  22.6  24.1   344  67.8  67.6  99.2
2018-07-21 11:00  21.2  22.4   339  67.1  67.0  99.7
2018-07-21 10:00  21.2  22.7   336  67.1  67.0  99.6
2018-07-21 09:00  19.8  21.6   350  68.4  68.3  99.7
2018-07-21 08:00  20.8  23.3   329  67.3  67.0  98.9
2018-07-21 07:00  20.6  21.6   327  67.8  67.0  97.0
2018-07-21 06:00  19.6  21.0   327  67.3  67.2  99.7
2018-07-21 05:00  19.4  20.8   326  68.2  67.6  98.0
2018-07-21 04:00  17.5  19.1   298  68.7  68.0  97.5
2018-07-21 03:00  15.4  16.9   287  70.3  67.3  89.8
2018-07-21 02:00  14.0  14.4   298  70.7  68.0  91.1
2018-07-21 01:00  11.9  12.8   307  70.7  68.4  92.4
2018-07-21 00:00   8.0   8.7   283  70.0  68.6  95.4
2018-07-20 23:00  10.9  12.8   263  70.0  67.9  93.0
2018-07-20 22:00  13.8  16.3   265  70.5  68.4  93.0
2018-07-20 21:00  16.1  17.9   258  71.4  66.8  85.0
2018-07-20 20:00  20.0  22.6   272  72.7  66.3  80.0
2018-07-20 19:00  12.6  14.4   277  73.6  66.1  77.2
2018-07-20 18:00  16.9  18.7   280  73.9  65.3  74.0
2018-07-20 17:00  14.4  17.3   285  73.8  66.9  78.7
2018-07-20 16:00  12.6  14.2   271  72.9  69.0  87.6
2018-07-20 15:00  12.4  15.9   250  72.7  67.9  84.8
2018-07-20 14:00  15.9  18.7   243  72.1  67.6  85.5
2018-07-20 13:00  11.9  13.8   224  73.0  67.3  82.0
2018-07-20 12:00  14.4  17.3   227  72.3  65.4  78.6
2018-07-20 11:00  11.7  13.2   210  76.3  64.3  65.9
2018-07-20 10:00  12.4  14.6   207  75.7  66.7  73.2
2018-07-20 09:00  16.3  18.7   211  75.0  67.1  76.0
2018-07-20 08:00  18.7  20.8   201  74.5  67.2  77.7
2018-07-20 07:00  20.2  22.4   200  74.7  66.8  76.1
2018-07-20 06:00  20.8  25.9   197  75.4  65.6  71.3
2018-07-20 05:00  18.1  20.0   191  75.9  66.5  72.2
2018-07-20 04:00  23.9  25.9   198  76.3  66.3  70.8
2018-07-20 03:00  25.7  28.0   187  77.7  66.3  67.5
2018-07-20 02:00  25.9  28.4   171  77.2  66.6  69.4
2018-07-20 01:00  23.7  26.4   170  77.2  66.9  70.1
2018-07-20 00:00  19.2  22.4   167  77.5  67.5  70.8
2018-07-19 23:00  18.5  21.8   147  77.2  67.7  72.2
2018-07-19 22:00  15.7  19.2   163  78.1  68.5  71.9
2018-07-19 21:00  15.6  18.1   161  79.0  67.7  67.8
2018-07-19 20:00  14.2  15.4   167  79.2  67.3  66.5
2018-07-19 19:00  17.1  19.1   178  80.8  63.7  55.4
2018-07-19 18:00  17.5  18.7   194  81.7  62.9  52.4
2018-07-19 17:00  15.4  16.3   176  81.3  62.2  51.7
2018-07-19 16:00  15.0  15.6   177  81.9  60.5  47.7
2018-07-19 15:00  10.7  12.8   157  80.8  63.3  54.7
2018-07-19 14:00  15.9  17.7   165  80.6  60.7  50.2
2018-07-19 13:00  11.9  14.4   150  79.0  64.8  61.4
2018-07-19 12:00  13.4  14.2   117  75.9  66.5  72.2
2018-07-19 11:00  10.7  11.7   112  74.1  65.1  73.0
2018-07-19 10:00   7.4   8.4   132  72.9  62.7  70.0
2018-07-19 09:00   8.0   8.6   129  72.9  60.9  65.6
2018-07-19 08:00   7.8   8.2   110  72.1  61.0  67.5
2018-07-19 07:00   8.2   8.9    96  72.0  61.7  69.7
2018-07-19 06:00   7.8   8.7   100  71.6  60.5  67.6
2018-07-19 05:00   6.4   7.2    99  71.4  59.7  66.0
2018-07-19 04:00   7.6   8.7    97  71.8  59.2  64.1
2018-07-19 03:00   8.2   8.9    89  71.6  59.1  64.3
2018-07-19 02:00   8.7   9.7    87  71.2  61.0  69.8
2018-07-19 01:00   9.3  10.5   106  71.6  63.1  74.2
2018-07-19 00:00   8.2   8.9    91  72.0  56.9  58.5
2018-07-18 23:00   7.0   7.8    82  71.6  59.7  65.6
2018-07-18 22:00   4.1   4.9    46  71.6  58.7  63.4
2018-07-18 21:00   6.8   7.6    52  71.6  56.8  59.0
2018-07-18 20:00   6.4   7.0    52  72.0  55.4  55.5
2018-07-18 19:00   7.0   7.6    41  72.1  56.6  57.6
2018-07-18 18:00   7.6   8.6    41  71.6  56.2  57.8
2018-07-18 17:00   9.3  10.7    37  71.1  56.2  58.8
2018-07-18 16:00   9.1  11.1    29  70.7  55.6  58.4
2018-07-18 15:00   7.6   8.6    43  70.3  55.4  58.7
2018-07-18 14:00   8.7   9.9    52  70.2  55.5  59.3
2018-07-18 13:00   6.4   8.0    58  70.2  56.6  61.6
2018-07-18 12:00   8.2   9.7    66  70.0  55.0  58.5
2018-07-18 11:00   9.1  10.5    65  69.8  55.7  60.5
2018-07-18 10:00   7.6   9.3    47  69.6  56.3  62.1
2018-07-18 09:00   6.4   7.6    57  70.0  57.2  63.5
2018-07-18 08:00   8.2   9.1    66  70.3  56.8  61.8
2018-07-18 07:00   8.7   9.3    43  70.3  55.2  58.3
2018-07-18 06:00   7.4   8.7    53  70.2  56.8  62.2
2018-07-18 05:00   6.8   7.8    68  70.0  58.5  66.5
2018-07-18 04:00   9.7  10.7    54  70.9  57.3  61.8
2018-07-18 03:00  12.4  14.0    41  71.4  54.4  54.5
2018-07-18 02:00  14.2  15.9    29  71.2  55.2  56.5
2018-07-18 01:00  15.9  16.9    32  71.2  56.0  58.1
2018-07-18 00:00  12.2  13.4    36  70.5  59.1  66.7
2018-07-17 23:00  11.7  13.2    39  70.3  59.5  68.0
2018-07-17 22:00  12.6  15.0    33  70.3  61.2  72.5
2018-07-17 21:00  15.7  17.3    35  70.3  60.1  69.5
2018-07-17 20:00  14.8  17.1    29  70.7  62.9  75.9
2018-07-17 19:00  17.1  18.1    26  71.6  60.3  67.1